createdAt,value
2018-02-25T00:01:50.888Z,7.45
2018-02-25T00:04:21.297Z,5.93
2018-02-25T00:06:51.336Z,5.82
2018-02-25T00:09:21.381Z,7.30
2018-02-25T00:11:51.278Z,6.53
2018-02-25T00:14:22.004Z,8.95
2018-02-25T00:16:52.412Z,8.20
2018-02-25T00:19:21.978Z,7.10
2018-02-25T00:21:51.997Z,8.80
2018-02-25T00:24:22.823Z,8.65
2018-02-25T00:26:52.606Z,6.93
2018-02-25T00:29:22.123Z,8.60
2018-02-25T00:31:51.880Z,9.65
2018-02-25T00:34:21.916Z,7.70
2018-02-25T00:36:51.430Z,9.85
2018-02-25T00:39:21.570Z,11.43
2018-02-25T00:41:51.064Z,10.85
2018-02-25T00:44:21.137Z,9.20
2018-02-25T00:46:51.270Z,8.23
2018-02-25T00:49:21.370Z,7.00
2018-02-25T00:51:50.957Z,6.50
2018-02-25T00:54:21.151Z,7.82
2018-02-25T00:56:51.064Z,8.20
2018-02-25T00:59:21.510Z,7.68
2018-02-25T01:01:51.525Z,6.18
2018-02-25T01:04:21.409Z,6.53
2018-02-25T01:06:51.225Z,6.60
2018-02-25T01:09:22.133Z,6.40
2018-02-25T01:11:51.742Z,6.07
2018-02-25T01:14:21.740Z,6.70
2018-02-25T01:16:51.885Z,6.15
2018-02-25T01:19:21.395Z,6.30
2018-02-25T01:21:51.358Z,6.28
2018-02-25T01:24:21.568Z,5.65
2018-02-25T01:26:51.559Z,6.30
2018-02-25T01:29:21.159Z,5.68
2018-02-25T01:31:51.137Z,5.55
2018-02-25T01:34:21.125Z,4.72
2018-02-25T01:36:51.019Z,5.80
2018-02-25T01:39:20.922Z,6.57
2018-02-25T01:41:51.006Z,6.28
2018-02-25T01:44:20.746Z,5.65
2018-02-25T01:46:50.640Z,6.22
2018-02-25T01:49:20.712Z,5.85
2018-02-25T01:51:50.704Z,5.50
2018-02-25T01:54:20.887Z,5.35
2018-02-25T01:56:51.451Z,5.85
2018-02-25T01:59:21.334Z,5.87
2018-02-25T02:01:52.950Z,6.00
2018-02-25T02:04:22.955Z,5.75
2018-02-25T02:06:52.975Z,5.90
2018-02-25T02:09:22.606Z,5.90
2018-02-25T02:11:52.850Z,5.30
2018-02-25T02:14:22.690Z,5.87
2018-02-25T02:16:52.438Z,6.30
2018-02-25T02:19:22.991Z,6.15
2018-02-25T02:21:53.008Z,5.93
2018-02-25T02:24:23.876Z,6.32
2018-02-25T02:26:54.419Z,5.85
2018-02-25T02:29:24.319Z,6.20
2018-02-25T02:31:53.884Z,5.87
2018-02-25T02:34:23.583Z,6.45
2018-02-25T02:36:53.451Z,6.35
2018-02-25T02:39:22.969Z,7.10
2018-02-25T02:41:53.354Z,6.03
2018-02-25T02:44:23.503Z,7.20
2018-02-25T02:46:53.505Z,6.15
2018-02-25T02:49:23.626Z,6.18
2018-02-25T02:51:53.792Z,5.70
2018-02-25T02:54:24.065Z,5.97
2018-02-25T02:56:53.861Z,5.60
2018-02-25T02:59:23.352Z,6.25
2018-02-25T03:01:53.058Z,5.80
2018-02-25T03:04:22.672Z,6.07
2018-02-25T03:06:53.047Z,7.10
2018-02-25T03:09:25.529Z,6.95
2018-02-25T03:11:56.104Z,6.45
2018-02-25T03:14:26.217Z,7.30
2018-02-25T03:16:56.182Z,8.15
2018-02-25T03:19:26.104Z,5.82
2018-02-25T03:21:55.978Z,6.90
2018-02-25T03:24:25.448Z,7.12
2018-02-25T03:26:55.804Z,6.10
2018-02-25T03:29:25.725Z,6.40
2018-02-25T03:31:55.658Z,5.97
2018-02-25T03:34:26.255Z,7.15
2018-02-25T03:36:56.055Z,5.45
2018-02-25T03:39:25.911Z,5.47
2018-02-25T03:41:56.327Z,5.87
2018-02-25T03:44:26.233Z,5.25
2018-02-25T03:46:56.101Z,4.75
2018-02-25T03:49:26.478Z,5.15
2018-02-25T03:51:56.580Z,5.05
2018-02-25T03:54:26.299Z,5.32
2018-02-25T03:56:56.212Z,4.30
2018-02-25T03:59:26.313Z,5.10
2018-02-25T04:01:56.227Z,4.53
2018-02-25T04:04:26.269Z,5.40
2018-02-25T04:06:56.471Z,5.78
2018-02-25T04:09:26.303Z,5.30
2018-02-25T04:11:56.166Z,5.95
2018-02-25T04:14:26.593Z,5.37
2018-02-25T04:16:56.517Z,4.82
2018-02-25T04:19:26.309Z,5.03
2018-02-25T04:21:56.400Z,4.37
2018-02-25T04:24:26.878Z,4.95
2018-02-25T04:26:57.256Z,4.25
2018-02-25T04:29:27.314Z,4.30
2018-02-25T04:31:57.161Z,4.18
2018-02-25T04:34:27.078Z,4.45
2018-02-25T04:36:57.157Z,4.80
2018-02-25T04:39:27.092Z,4.53
2018-02-25T04:41:56.721Z,4.93
2018-02-25T04:44:27.106Z,4.65
2018-02-25T04:46:56.654Z,3.72
2018-02-25T04:49:26.733Z,4.00
2018-02-25T04:51:57.367Z,3.55
2018-02-25T04:54:28.033Z,3.35
2018-02-25T04:56:57.871Z,3.80
2018-02-25T04:59:28.245Z,4.00
2018-02-25T05:01:59.416Z,3.78
2018-02-25T05:04:29.101Z,3.40
2018-02-25T05:06:58.798Z,3.10
2018-02-25T05:09:28.828Z,3.30
2018-02-25T05:11:58.790Z,3.00
2018-02-25T05:14:28.851Z,3.87
2018-02-25T05:16:58.679Z,3.33
2018-02-25T05:19:28.895Z,3.10
2018-02-25T05:21:59.029Z,2.85
2018-02-25T05:24:28.938Z,2.95
2018-02-25T05:26:58.814Z,2.95
2018-02-25T05:29:29.191Z,3.67
2018-02-25T05:31:58.930Z,4.70
2018-02-25T05:34:28.592Z,4.40
2018-02-25T05:36:58.621Z,3.65
2018-02-25T05:39:28.776Z,4.10
2018-02-25T05:41:59.773Z,3.67
2018-02-25T05:44:30.267Z,4.18
2018-02-25T05:46:59.981Z,3.60
2018-02-25T05:49:30.066Z,3.92
2018-02-25T05:51:59.933Z,3.60
2018-02-25T05:54:29.861Z,3.58
2018-02-25T05:56:59.852Z,3.35
2018-02-25T05:59:29.664Z,2.70
2018-02-25T06:01:59.443Z,2.62
2018-02-25T06:04:29.346Z,3.10
2018-02-25T06:07:02.875Z,2.45
2018-02-25T06:09:32.700Z,3.00
2018-02-25T06:12:02.524Z,2.47
2018-02-25T06:14:32.140Z,2.75
2018-02-25T06:17:01.997Z,2.30
2018-02-25T06:19:31.708Z,2.28
2018-02-25T06:22:01.843Z,2.25
2018-02-25T06:24:31.589Z,2.22
2018-02-25T06:27:01.432Z,2.40
2018-02-25T06:29:32.703Z,2.47
2018-02-25T06:32:02.393Z,1.70
2018-02-25T06:34:32.245Z,2.70
2018-02-25T06:37:01.952Z,2.53
2018-02-25T06:39:32.297Z,2.40
2018-02-25T06:42:01.943Z,2.25
2018-02-25T06:44:31.518Z,2.22
2018-02-25T06:47:01.180Z,2.50
2018-02-25T06:49:31.417Z,2.60
2018-02-25T06:52:01.063Z,2.40
2018-02-25T06:54:31.898Z,2.60
2018-02-25T06:57:01.731Z,2.53
2018-02-25T06:59:32.321Z,2.58
2018-02-25T07:02:02.539Z,2.47
2018-02-25T07:04:32.690Z,2.70
2018-02-25T07:07:02.599Z,2.60
2018-02-25T07:09:32.199Z,3.12
2018-02-25T07:12:02.405Z,2.95
2018-02-25T07:14:32.128Z,3.22
2018-02-25T07:17:01.865Z,3.70
2018-02-25T07:19:31.781Z,4.30
2018-02-25T07:22:01.302Z,3.53
2018-02-25T07:24:30.988Z,3.42
2018-02-25T07:27:00.921Z,3.08
2018-02-25T07:29:31.329Z,2.87
2018-02-25T07:32:02.019Z,3.03
2018-02-25T07:34:31.856Z,3.58
2018-02-25T07:37:01.313Z,3.58
2018-02-25T07:39:31.504Z,3.35
2018-02-25T07:42:01.480Z,3.83
2018-02-25T07:44:30.942Z,4.15
2018-02-25T07:47:00.995Z,3.72
2018-02-25T07:49:31.128Z,3.65
2018-02-25T07:52:01.277Z,3.47
2018-02-25T07:54:31.100Z,3.95
2018-02-25T07:57:00.961Z,3.53
2018-02-25T07:59:30.617Z,3.40
2018-02-25T08:02:00.766Z,3.90
2018-02-25T08:04:30.604Z,4.30
2018-02-25T08:07:00.742Z,4.78
2018-02-25T08:09:31.948Z,4.28
2018-02-25T08:12:01.530Z,3.85
2018-02-25T08:14:30.965Z,4.68
2018-02-25T08:17:02.196Z,3.67
2018-02-25T08:19:35.396Z,4.18
2018-02-25T08:22:06.059Z,3.92
2018-02-25T08:24:35.869Z,3.67
2018-02-25T08:27:06.001Z,4.00
2018-02-25T08:29:36.589Z,3.08
2018-02-25T08:32:07.704Z,3.83
2018-02-25T08:34:39.360Z,3.80
2018-02-25T08:37:09.526Z,4.10
2018-02-25T08:39:39.853Z,4.35
2018-02-25T08:42:09.687Z,3.30
2018-02-25T08:44:39.246Z,3.62
2018-02-25T08:47:09.820Z,3.80
2018-02-25T08:49:39.259Z,8.30
2018-02-25T08:52:10.265Z,5.75
2018-02-25T08:54:40.153Z,6.20
2018-02-25T08:57:09.722Z,11.63
2018-02-25T08:59:39.811Z,7.57
2018-02-25T09:02:10.360Z,6.10
2018-02-25T09:04:40.505Z,8.98
2018-02-25T09:07:10.415Z,7.95
2018-02-25T09:09:41.814Z,7.93
2018-02-25T09:12:11.715Z,5.93
2018-02-25T09:14:41.190Z,6.90
2018-02-25T09:17:12.379Z,3.70
2018-02-25T09:19:41.858Z,3.30
2018-02-25T09:22:11.546Z,9.55
2018-02-25T09:24:41.350Z,11.15
2018-02-25T09:27:10.778Z,3.92
2018-02-25T09:29:40.806Z,4.30
2018-02-25T09:32:10.921Z,5.97
2018-02-25T09:34:41.144Z,9.05
2018-02-25T09:37:10.633Z,4.07
2018-02-25T09:39:40.589Z,7.65
2018-02-25T09:42:10.009Z,6.93
2018-02-25T09:44:39.515Z,11.38
2018-02-25T09:47:12.197Z,4.68
2018-02-25T09:49:41.988Z,4.05
2018-02-25T09:52:12.992Z,8.13
2018-02-25T09:54:43.852Z,6.00
2018-02-25T09:57:13.883Z,4.55
2018-02-25T09:59:43.356Z,3.50
2018-02-25T10:02:15.822Z,5.30
2018-02-25T10:04:45.275Z,3.12
2018-02-25T10:07:15.480Z,3.30
2018-02-25T10:09:47.970Z,2.85
2018-02-25T10:12:23.278Z,3.67
2018-02-25T10:14:56.245Z,4.80
2018-02-25T10:17:28.194Z,7.35
2018-02-25T10:20:00.661Z,6.32
2018-02-25T10:22:37.210Z,4.05
2018-02-25T10:25:10.856Z,13.75
2018-02-25T10:27:42.352Z,8.02
2018-02-25T10:30:17.513Z,8.15
2018-02-25T10:32:48.459Z,3.05
2018-02-25T10:35:18.353Z,4.20
2018-02-25T10:37:47.805Z,4.72
2018-02-25T10:40:17.583Z,7.37
2018-02-25T10:42:47.053Z,4.20
2018-02-25T10:45:16.467Z,5.65
2018-02-25T10:47:47.044Z,2.80
2018-02-25T10:50:16.483Z,2.85
2018-02-25T10:52:46.497Z,3.70
2018-02-25T10:55:17.215Z,6.55
2018-02-25T10:57:46.661Z,2.50
2018-02-25T11:00:16.570Z,4.10
2018-02-25T11:02:46.600Z,7.30
2018-02-25T11:05:17.061Z,5.03
2018-02-25T11:07:46.633Z,4.55
2018-02-25T11:10:16.932Z,5.85
2018-02-25T11:12:46.473Z,3.15
2018-02-25T11:15:15.891Z,3.15
2018-02-25T11:17:45.661Z,4.30
2018-02-25T11:20:15.198Z,2.80
2018-02-25T11:22:44.678Z,2.97
2018-02-25T11:25:16.653Z,2.20
2018-02-25T11:27:46.275Z,4.90
2018-02-25T11:30:15.734Z,4.70
2018-02-25T11:32:45.273Z,3.12
2018-02-25T11:35:16.067Z,2.20
2018-02-25T11:37:46.996Z,2.00
2018-02-25T11:40:19.398Z,3.70
2018-02-25T11:42:48.878Z,2.60
2018-02-25T11:45:18.988Z,5.18
2018-02-25T11:47:48.484Z,4.90
2018-02-25T11:50:18.012Z,4.40
2018-02-25T11:52:48.288Z,2.65
2018-02-25T11:55:17.817Z,3.67
2018-02-25T11:57:47.393Z,2.47
2018-02-25T12:00:17.205Z,2.50
2018-02-25T12:02:46.829Z,2.40
2018-02-25T12:05:16.358Z,2.15
2018-02-25T12:07:46.521Z,2.15
2018-02-25T12:10:16.200Z,2.60
2018-02-25T12:12:47.031Z,2.20
2018-02-25T12:15:18.359Z,2.00
2018-02-25T12:17:48.683Z,2.10
2018-02-25T12:20:18.792Z,2.40
2018-02-25T12:22:48.769Z,2.40
2018-02-25T12:25:18.857Z,2.58
2018-02-25T12:27:51.165Z,2.45
2018-02-25T12:30:23.878Z,3.03
2018-02-25T12:32:54.149Z,2.87
2018-02-25T12:35:29.526Z,2.65
2018-02-25T12:38:01.392Z,2.50
2018-02-25T12:40:33.112Z,2.62
2018-02-25T12:43:03.233Z,2.50
2018-02-25T12:45:38.179Z,2.75
2018-02-25T12:48:08.454Z,2.20
2018-02-25T12:50:38.141Z,2.25
2018-02-25T12:53:09.188Z,2.22
2018-02-25T12:55:38.956Z,2.10
2018-02-25T12:58:08.741Z,2.20
2018-02-25T13:00:38.650Z,2.30
2018-02-25T13:03:08.660Z,2.22
2018-02-25T13:05:38.437Z,2.05
2018-02-25T13:08:08.052Z,2.15
2018-02-25T13:10:38.170Z,2.33
2018-02-25T13:13:07.756Z,2.92
2018-02-25T13:15:37.192Z,2.80
2018-02-25T13:18:07.543Z,2.40
2018-02-25T13:20:38.039Z,2.30
2018-02-25T13:23:08.342Z,2.45
2018-02-25T13:25:38.069Z,2.00
2018-02-25T13:28:07.614Z,1.98
2018-02-25T13:30:37.044Z,2.40
2018-02-25T13:33:06.759Z,2.15
2018-02-25T13:35:37.512Z,2.75
2018-02-25T13:38:06.933Z,2.95
2018-02-25T13:40:37.328Z,2.65
2018-02-25T13:43:07.015Z,2.50
2018-02-25T13:45:36.617Z,2.80
2018-02-25T13:48:06.545Z,2.40
2018-02-25T13:50:36.477Z,2.40
2018-02-25T13:53:06.366Z,2.50
2018-02-25T13:55:36.157Z,2.60
2018-02-25T13:58:05.969Z,2.60
2018-02-25T14:00:35.505Z,2.40
2018-02-25T14:03:05.514Z,2.40
2018-02-25T14:05:36.020Z,2.60
2018-02-25T14:08:05.880Z,2.30
2018-02-25T14:10:35.768Z,3.10
2018-02-25T14:13:05.513Z,2.70
2018-02-25T14:15:35.313Z,2.78
2018-02-25T14:18:06.222Z,2.55
2018-02-25T14:20:35.672Z,2.65
2018-02-25T14:23:05.636Z,2.17
2018-02-25T14:25:35.398Z,2.70
2018-02-25T14:28:05.289Z,2.30
2018-02-25T14:30:34.843Z,2.62
2018-02-25T14:33:04.838Z,2.65
2018-02-25T14:35:34.380Z,2.42
2018-02-25T14:38:04.009Z,2.42
2018-02-25T14:40:33.804Z,12.95
2018-02-25T14:43:03.288Z,23.30
2018-02-25T14:45:32.793Z,16.35
2018-02-25T14:48:03.815Z,9.60
2018-02-25T14:50:35.224Z,17.62
2018-02-25T14:53:06.380Z,11.38
2018-02-25T14:55:36.725Z,11.12
2018-02-25T14:58:06.205Z,6.12
2018-02-25T15:00:35.711Z,8.35
2018-02-25T15:03:05.277Z,6.75
2018-02-25T15:05:35.145Z,9.07
2018-02-25T15:08:04.857Z,6.80
2018-02-25T15:10:34.947Z,3.70
2018-02-25T15:13:04.577Z,8.52
2018-02-25T15:15:37.163Z,7.35
2018-02-25T15:18:06.941Z,9.60
2018-02-25T15:20:36.892Z,5.18
2018-02-25T15:23:06.323Z,4.03
2018-02-25T15:25:35.846Z,4.35
2018-02-25T15:28:05.395Z,3.00
2018-02-25T15:30:36.252Z,5.00
2018-02-25T15:33:05.754Z,6.90
2018-02-25T15:35:36.420Z,2.45
2018-02-25T15:38:06.380Z,6.40
2018-02-25T15:40:35.900Z,5.87
2018-02-25T15:43:05.409Z,7.00
2018-02-25T15:45:34.906Z,6.05
2018-02-25T15:48:06.784Z,4.82
2018-02-25T15:50:38.429Z,4.80
2018-02-25T15:53:11.380Z,3.25
2018-02-25T15:55:41.853Z,2.85
2018-02-25T15:58:13.053Z,2.40
2018-02-25T16:00:42.617Z,3.55
2018-02-25T16:03:12.470Z,2.83
2018-02-25T16:05:42.765Z,2.35
2018-02-25T16:08:12.291Z,2.80
2018-02-25T16:10:42.201Z,2.50
2018-02-25T16:13:13.238Z,2.70
2018-02-25T16:15:42.734Z,6.32
2018-02-25T16:18:12.554Z,2.92
2018-02-25T16:20:42.445Z,3.75
2018-02-25T16:23:12.527Z,3.67
2018-02-25T16:25:42.402Z,3.80
2018-02-25T16:28:11.992Z,3.50
2018-02-25T16:30:43.265Z,3.30
2018-02-25T16:33:13.367Z,3.35
2018-02-25T16:35:43.079Z,3.92
2018-02-25T16:38:12.541Z,3.53
2018-02-25T16:41:13.857Z,4.10
2018-02-25T16:43:43.664Z,4.20
2018-02-25T16:46:13.496Z,3.08
2018-02-25T16:48:42.901Z,3.67
2018-02-25T16:51:12.848Z,4.35
2018-02-25T16:53:43.353Z,4.85
2018-02-25T16:56:13.842Z,3.60
2018-02-25T16:58:43.259Z,3.20
2018-02-25T17:01:13.019Z,3.67
2018-02-25T17:03:42.624Z,3.65
2018-02-25T17:06:13.125Z,10.65
2018-02-25T17:08:43.005Z,12.95
2018-02-25T17:11:12.538Z,10.02
2018-02-25T17:13:42.203Z,12.10
2018-02-25T17:16:11.624Z,5.15
2018-02-25T17:18:41.386Z,4.82
2018-02-25T17:21:12.143Z,3.75
2018-02-25T17:23:42.340Z,3.90
2018-02-25T17:26:11.817Z,3.17
2018-02-25T17:28:41.229Z,3.95
2018-02-25T17:31:10.756Z,3.75
2018-02-25T17:33:40.838Z,3.60
2018-02-25T17:36:10.835Z,3.40
2018-02-25T17:38:40.603Z,3.47
2018-02-25T17:41:10.156Z,3.30
2018-02-25T17:43:40.138Z,3.33
2018-02-25T17:46:10.200Z,3.33
2018-02-25T17:48:39.562Z,3.62
2018-02-25T17:51:09.412Z,4.00
2018-02-25T17:53:38.938Z,3.42
2018-02-25T17:56:08.402Z,3.35
2018-02-25T17:58:38.423Z,3.37
2018-02-25T18:01:07.942Z,5.12
2018-02-25T18:03:37.513Z,5.43
2018-02-25T18:06:07.578Z,4.30
2018-02-25T18:08:37.036Z,8.02
2018-02-25T18:11:06.954Z,3.15
2018-02-25T18:13:37.299Z,3.03
2018-02-25T18:16:07.513Z,2.90
2018-02-25T18:18:37.550Z,3.00
2018-02-25T18:21:08.026Z,2.60
2018-02-25T18:23:38.176Z,2.97
2018-02-25T18:26:07.815Z,3.12
2018-02-25T18:28:37.916Z,3.72
2018-02-25T18:31:07.384Z,5.22
2018-02-25T18:33:36.837Z,3.78
2018-02-25T18:36:08.510Z,4.10
2018-02-25T18:38:39.163Z,4.40
2018-02-25T18:41:09.076Z,3.58
2018-02-25T18:43:38.859Z,4.03
2018-02-25T18:46:08.372Z,3.70
2018-02-25T18:48:37.836Z,3.83
2018-02-25T18:51:08.219Z,2.90
2018-02-25T18:53:39.297Z,2.70
2018-02-25T18:56:09.856Z,2.70
2018-02-25T18:58:39.604Z,2.70
2018-02-25T19:01:09.072Z,2.40
2018-02-25T19:03:39.242Z,2.20
2018-02-25T19:06:09.478Z,2.37
2018-02-25T19:08:39.308Z,2.87
2018-02-25T19:11:10.072Z,2.33
2018-02-25T19:13:40.530Z,2.70
2018-02-25T19:16:10.313Z,2.90
2018-02-25T19:18:40.252Z,2.40
2018-02-25T19:21:10.307Z,2.70
2018-02-25T19:23:40.811Z,2.83
2018-02-25T19:26:10.448Z,2.67
2018-02-25T19:28:41.034Z,2.70
2018-02-25T19:31:11.476Z,2.67
2018-02-25T19:33:41.126Z,2.50
2018-02-25T19:36:15.329Z,3.25
2018-02-25T19:40:52.002Z,3.05
2018-02-25T19:43:23.305Z,2.40
2018-02-25T19:45:52.961Z,2.78
2018-02-25T19:48:22.793Z,3.40
2018-02-25T19:50:52.447Z,2.70
2018-02-25T19:53:22.349Z,2.65
2018-02-25T19:55:53.067Z,2.70
2018-02-25T19:58:23.539Z,2.78
2018-02-25T20:00:53.126Z,3.50
2018-02-25T20:03:23.172Z,2.90
2018-02-25T20:05:52.915Z,4.03
2018-02-25T20:08:22.527Z,6.45
2018-02-25T20:10:52.614Z,9.88
2018-02-25T20:13:22.108Z,9.85
2018-02-25T20:15:51.589Z,12.00
2018-02-25T20:18:21.769Z,6.03
2018-02-25T20:20:51.272Z,5.03
2018-02-25T20:23:20.718Z,5.05
2018-02-25T20:25:50.195Z,4.80
2018-02-25T20:28:19.720Z,4.00
2018-02-25T20:30:49.669Z,4.20
2018-02-25T20:33:19.122Z,2.90
2018-02-25T20:35:48.624Z,3.80
2018-02-25T20:38:18.560Z,3.47
2018-02-25T20:40:48.474Z,2.95
2018-02-25T20:43:18.359Z,3.75
2018-02-25T20:45:48.256Z,3.25
2018-02-25T20:48:17.947Z,3.20
2018-02-25T20:50:47.594Z,3.35
2018-02-25T20:53:17.539Z,3.83
2018-02-25T20:55:47.160Z,3.28
2018-02-25T20:58:16.659Z,4.32
2018-02-25T21:00:47.442Z,3.50
2018-02-25T21:03:17.059Z,3.70
2018-02-25T21:05:47.107Z,3.87
2018-02-25T21:08:16.930Z,4.25
2018-02-25T21:10:46.400Z,4.03
2018-02-25T21:13:16.521Z,3.33
2018-02-25T21:15:46.128Z,2.90
2018-02-25T21:18:16.818Z,2.80
2018-02-25T21:20:46.723Z,3.15
2018-02-25T21:23:17.013Z,2.75
2018-02-25T21:25:46.625Z,3.58
2018-02-25T21:28:16.980Z,2.70
2018-02-25T21:30:46.535Z,2.80
2018-02-25T21:33:16.089Z,2.80
2018-02-25T21:35:45.522Z,5.30
2018-02-25T21:38:14.968Z,4.65
2018-02-25T21:40:44.478Z,4.50
2018-02-25T21:43:14.872Z,3.97
2018-02-25T21:45:44.455Z,3.78
2018-02-25T21:48:14.249Z,3.65
2018-02-25T21:50:44.199Z,11.12
2018-02-25T21:53:14.810Z,4.15
2018-02-25T21:55:48.590Z,3.12
2018-02-25T22:00:27.026Z,4.50
2018-02-25T22:03:58.969Z,5.90
2018-02-25T22:06:28.464Z,5.95
2018-02-25T22:08:58.379Z,7.25
2018-02-25T22:11:27.958Z,9.52
2018-02-25T22:13:57.849Z,11.52
2018-02-25T22:16:28.163Z,5.90
2018-02-25T22:18:57.600Z,4.82
2018-02-25T22:21:27.138Z,3.30
2018-02-25T22:23:57.069Z,4.35
2018-02-25T22:26:27.215Z,5.20
2018-02-25T22:28:57.147Z,6.30
2018-02-25T22:31:27.244Z,10.65
2018-02-25T22:33:59.830Z,10.98
2018-02-25T22:36:29.545Z,9.38
2018-02-25T22:38:59.813Z,12.18
2018-02-25T22:41:30.559Z,14.75
2018-02-25T22:44:00.096Z,14.32
2018-02-25T22:46:30.090Z,15.77
2018-02-25T22:48:59.803Z,10.85
2018-02-25T22:51:30.404Z,11.27
2018-02-25T22:54:02.718Z,13.13
2018-02-25T22:56:34.261Z,8.70
2018-02-25T22:59:04.132Z,11.02
2018-02-25T23:01:34.091Z,11.02
2018-02-25T23:04:03.901Z,8.30
2018-02-25T23:06:33.531Z,8.95
2018-02-25T23:09:03.981Z,5.75
2018-02-25T23:11:33.637Z,9.75
2018-02-25T23:14:03.431Z,11.40
2018-02-25T23:16:33.269Z,5.80
2018-02-25T23:19:02.716Z,6.35
2018-02-25T23:21:32.234Z,6.70
2018-02-25T23:24:02.407Z,4.80
2018-02-25T23:26:32.131Z,4.95
2018-02-25T23:29:01.969Z,3.53
2018-02-25T23:31:31.674Z,3.40
2018-02-25T23:34:01.664Z,3.65
2018-02-25T23:36:31.778Z,3.78
2018-02-25T23:39:01.668Z,3.60
2018-02-25T23:41:31.834Z,3.80
2018-02-25T23:44:02.195Z,4.03
2018-02-25T23:46:32.275Z,3.85
2018-02-25T23:49:02.468Z,4.57
2018-02-25T23:51:32.268Z,3.83
2018-02-25T23:54:02.102Z,4.50
2018-02-25T23:56:32.198Z,4.78
2018-02-25T23:59:01.977Z,4.12
